sensor_id;sensor_type;location;lat;lon;timestamp;P1;durP1;ratioP1;P2;durP2;ratioP2
71715;SDS011;59568;52.128;5.434;2022-12-07T00:01:58;4.18;;;2.15;;
71715;SDS011;59568;52.128;5.434;2022-12-07T00:04:25;4.87;;;2.10;;
71715;SDS011;59568;52.128;5.434;2022-12-07T00:06:53;4.53;;;2.88;;
71715;SDS011;59568;52.128;5.434;2022-12-07T00:09:23;5.88;;;2.10;;
71715;SDS011;59568;52.128;5.434;2022-12-07T00:11:51;5.55;;;2.40;;
71715;SDS011;59568;52.128;5.434;2022-12-07T00:14:19;2.85;;;1.80;;
71715;SDS011;59568;52.128;5.434;2022-12-07T00:16:48;4.77;;;2.33;;
71715;SDS011;59568;52.128;5.434;2022-12-07T00:19:18;5.82;;;2.22;;
71715;SDS011;59568;52.128;5.434;2022-12-07T00:21:46;6.88;;;2.47;;
71715;SDS011;59568;52.128;5.434;2022-12-07T00:24:16;6.07;;;2.25;;
71715;SDS011;59568;52.128;5.434;2022-12-07T00:26:43;4.75;;;2.50;;
71715;SDS011;59568;52.128;5.434;2022-12-07T00:29:15;4.77;;;2.00;;
71715;SDS011;59568;52.128;5.434;2022-12-07T00:31:48;4.03;;;2.03;;
71715;SDS011;59568;52.128;5.434;2022-12-07T00:34:18;4.13;;;2.42;;
71715;SDS011;59568;52.128;5.434;2022-12-07T00:36:47;3.67;;;2.10;;
71715;SDS011;59568;52.128;5.434;2022-12-07T00:39:15;5.25;;;2.25;;
71715;SDS011;59568;52.128;5.434;2022-12-07T00:41:42;5.37;;;1.73;;
71715;SDS011;59568;52.128;5.434;2022-12-07T00:44:09;5.10;;;1.90;;
71715;SDS011;59568;52.128;5.434;2022-12-07T00:46:36;3.75;;;1.90;;
71715;SDS011;59568;52.128;5.434;2022-12-07T00:49:03;4.30;;;1.70;;
71715;SDS011;59568;52.128;5.434;2022-12-07T00:51:30;4.00;;;1.63;;
71715;SDS011;59568;52.128;5.434;2022-12-07T00:53:58;3.80;;;1.97;;
71715;SDS011;59568;52.128;5.434;2022-12-07T00:56:25;5.38;;;1.80;;
71715;SDS011;59568;52.128;5.434;2022-12-07T00:58:55;3.75;;;1.60;;
71715;SDS011;59568;52.128;5.434;2022-12-07T01:01:22;5.88;;;2.28;;
71715;SDS011;59568;52.128;5.434;2022-12-07T01:03:51;6.97;;;2.42;;
71715;SDS011;59568;52.128;5.434;2022-12-07T01:06:19;6.13;;;2.13;;
71715;SDS011;59568;52.128;5.434;2022-12-07T01:08:47;4.80;;;1.85;;
71715;SDS011;59568;52.128;5.434;2022-12-07T01:11:16;6.28;;;2.30;;
71715;SDS011;59568;52.128;5.434;2022-12-07T01:13:45;6.75;;;2.05;;
71715;SDS011;59568;52.128;5.434;2022-12-07T01:16:13;4.07;;;1.70;;
71715;SDS011;59568;52.128;5.434;2022-12-07T01:18:45;8.33;;;2.03;;
71715;SDS011;59568;52.128;5.434;2022-12-07T01:21:16;6.72;;;2.33;;
71715;SDS011;59568;52.128;5.434;2022-12-07T01:23:50;5.15;;;1.92;;
71715;SDS011;59568;52.128;5.434;2022-12-07T01:26:19;5.35;;;1.45;;
71715;SDS011;59568;52.128;5.434;2022-12-07T01:28:57;5.20;;;1.38;;
71715;SDS011;59568;52.128;5.434;2022-12-07T01:31:30;3.50;;;1.23;;
71715;SDS011;59568;52.128;5.434;2022-12-07T01:33:57;6.00;;;1.90;;
71715;SDS011;59568;52.128;5.434;2022-12-07T01:36:30;6.55;;;1.70;;
71715;SDS011;59568;52.128;5.434;2022-12-07T01:39:03;2.22;;;1.10;;
71715;SDS011;59568;52.128;5.434;2022-12-07T01:41:33;6.15;;;1.23;;
71715;SDS011;59568;52.128;5.434;2022-12-07T01:44:17;6.57;;;1.33;;
71715;SDS011;59568;52.128;5.434;2022-12-07T01:46:52;5.70;;;1.33;;
71715;SDS011;59568;52.128;5.434;2022-12-07T01:49:40;2.30;;;1.08;;
71715;SDS011;59568;52.128;5.434;2022-12-07T01:54:55;5.07;;;1.05;;
71715;SDS011;59568;52.128;5.434;2022-12-07T01:57:26;2.47;;;0.90;;
71715;SDS011;59568;52.128;5.434;2022-12-07T01:59:57;2.72;;;1.10;;
71715;SDS011;59568;52.128;5.434;2022-12-07T02:02:27;2.92;;;0.80;;
71715;SDS011;59568;52.128;5.434;2022-12-07T02:05:07;4.75;;;1.05;;
71715;SDS011;59568;52.128;5.434;2022-12-07T02:07:36;3.65;;;1.10;;
71715;SDS011;59568;52.128;5.434;2022-12-07T02:10:39;3.90;;;1.20;;
71715;SDS011;59568;52.128;5.434;2022-12-07T02:15:57;4.13;;;0.88;;
71715;SDS011;59568;52.128;5.434;2022-12-07T02:18:41;7.22;;;1.60;;
71715;SDS011;59568;52.128;5.434;2022-12-07T02:26:54;5.97;;;1.10;;
71715;SDS011;59568;52.128;5.434;2022-12-07T02:29:47;7.28;;;1.58;;
71715;SDS011;59568;52.128;5.434;2022-12-07T02:40:44;3.05;;;1.23;;
71715;SDS011;59568;52.128;5.434;2022-12-07T02:43:23;2.70;;;1.08;;
71715;SDS011;59568;52.128;5.434;2022-12-07T02:45:53;2.40;;;0.88;;
71715;SDS011;59568;52.128;5.434;2022-12-07T02:48:26;3.83;;;1.13;;
71715;SDS011;59568;52.128;5.434;2022-12-07T02:50:56;5.33;;;1.27;;
71715;SDS011;59568;52.128;5.434;2022-12-07T02:53:36;2.65;;;1.05;;
71715;SDS011;59568;52.128;5.434;2022-12-07T02:56:12;4.45;;;0.98;;
71715;SDS011;59568;52.128;5.434;2022-12-07T03:05:05;10.17;;;1.20;;
71715;SDS011;59568;52.128;5.434;2022-12-07T03:10:10;6.22;;;1.10;;
71715;SDS011;59568;52.128;5.434;2022-12-07T03:15:33;2.65;;;0.80;;
71715;SDS011;59568;52.128;5.434;2022-12-07T03:18:08;3.13;;;1.33;;
71715;SDS011;59568;52.128;5.434;2022-12-07T03:20:37;4.22;;;1.00;;
71715;SDS011;59568;52.128;5.434;2022-12-07T03:23:08;2.53;;;0.80;;
71715;SDS011;59568;52.128;5.434;2022-12-07T03:25:41;3.38;;;0.82;;
71715;SDS011;59568;52.128;5.434;2022-12-07T03:28:13;3.30;;;0.90;;
71715;SDS011;59568;52.128;5.434;2022-12-07T03:30:46;3.80;;;0.73;;
71715;SDS011;59568;52.128;5.434;2022-12-07T03:33:28;7.00;;;1.08;;
71715;SDS011;59568;52.128;5.434;2022-12-07T03:36:01;4.53;;;0.75;;
71715;SDS011;59568;52.128;5.434;2022-12-07T03:38:45;2.33;;;0.70;;
71715;SDS011;59568;52.128;5.434;2022-12-07T03:41:19;2.70;;;0.60;;
71715;SDS011;59568;52.128;5.434;2022-12-07T03:43:55;6.07;;;0.67;;
71715;SDS011;59568;52.128;5.434;2022-12-07T03:46:37;3.33;;;0.50;;
71715;SDS011;59568;52.128;5.434;2022-12-07T03:49:16;4.63;;;0.88;;
71715;SDS011;59568;52.128;5.434;2022-12-07T03:51:57;4.68;;;0.88;;
71715;SDS011;59568;52.128;5.434;2022-12-07T03:54:44;2.33;;;0.50;;
71715;SDS011;59568;52.128;5.434;2022-12-07T03:57:18;3.73;;;0.60;;
71715;SDS011;59568;52.128;5.434;2022-12-07T03:59:47;2.22;;;1.15;;
71715;SDS011;59568;52.128;5.434;2022-12-07T04:02:14;6.72;;;0.90;;
71715;SDS011;59568;52.128;5.434;2022-12-07T04:04:43;4.07;;;1.00;;
71715;SDS011;59568;52.128;5.434;2022-12-07T04:07:10;5.10;;;1.10;;
71715;SDS011;59568;52.128;5.434;2022-12-07T04:09:37;4.83;;;0.60;;
71715;SDS011;59568;52.128;5.434;2022-12-07T04:12:04;1.70;;;0.55;;
71715;SDS011;59568;52.128;5.434;2022-12-07T04:14:31;3.35;;;0.88;;
71715;SDS011;59568;52.128;5.434;2022-12-07T04:16:58;3.08;;;0.75;;
71715;SDS011;59568;52.128;5.434;2022-12-07T04:19:26;3.63;;;0.80;;
71715;SDS011;59568;52.128;5.434;2022-12-07T04:22:01;3.00;;;0.80;;
71715;SDS011;59568;52.128;5.434;2022-12-07T04:24:29;4.40;;;0.47;;
71715;SDS011;59568;52.128;5.434;2022-12-07T04:26:56;3.42;;;0.90;;
71715;SDS011;59568;52.128;5.434;2022-12-07T04:29:24;2.47;;;0.68;;
71715;SDS011;59568;52.128;5.434;2022-12-07T04:31:51;3.10;;;0.60;;
71715;SDS011;59568;52.128;5.434;2022-12-07T04:34:18;1.57;;;0.70;;
71715;SDS011;59568;52.128;5.434;2022-12-07T04:36:46;2.45;;;0.50;;
71715;SDS011;59568;52.128;5.434;2022-12-07T04:39:47;4.60;;;0.80;;
71715;SDS011;59568;52.128;5.434;2022-12-07T04:42:07;1.50;;;0.47;;
71715;SDS011;59568;52.128;5.434;2022-12-07T04:44:34;3.97;;;0.70;;
71715;SDS011;59568;52.128;5.434;2022-12-07T04:47:01;2.23;;;0.53;;
71715;SDS011;59568;52.128;5.434;2022-12-07T04:49:28;4.13;;;0.95;;
71715;SDS011;59568;52.128;5.434;2022-12-07T04:51:55;2.92;;;0.60;;
71715;SDS011;59568;52.128;5.434;2022-12-07T04:54:22;3.17;;;0.68;;
71715;SDS011;59568;52.128;5.434;2022-12-07T04:56:49;4.03;;;0.60;;
71715;SDS011;59568;52.128;5.434;2022-12-07T04:59:16;5.73;;;0.67;;
71715;SDS011;59568;52.128;5.434;2022-12-07T05:01:44;6.82;;;1.00;;
71715;SDS011;59568;52.128;5.434;2022-12-07T05:04:11;3.28;;;1.10;;
71715;SDS011;59568;52.128;5.434;2022-12-07T05:06:38;3.15;;;0.52;;
71715;SDS011;59568;52.128;5.434;2022-12-07T05:09:05;2.65;;;0.30;;
71715;SDS011;59568;52.128;5.434;2022-12-07T05:11:32;2.27;;;0.40;;
71715;SDS011;59568;52.128;5.434;2022-12-07T05:14:07;3.30;;;0.60;;
71715;SDS011;59568;52.128;5.434;2022-12-07T05:16:42;2.53;;;0.77;;
71715;SDS011;59568;52.128;5.434;2022-12-07T05:19:11;2.85;;;0.60;;
71715;SDS011;59568;52.128;5.434;2022-12-07T05:21:38;1.98;;;0.40;;
71715;SDS011;59568;52.128;5.434;2022-12-07T05:24:09;4.60;;;0.40;;
71715;SDS011;59568;52.128;5.434;2022-12-07T05:26:45;2.47;;;0.47;;
71715;SDS011;59568;52.128;5.434;2022-12-07T05:29:13;1.98;;;0.40;;
71715;SDS011;59568;52.128;5.434;2022-12-07T05:31:42;4.40;;;0.80;;
71715;SDS011;59568;52.128;5.434;2022-12-07T05:34:10;1.55;;;0.40;;
71715;SDS011;59568;52.128;5.434;2022-12-07T05:36:37;3.67;;;0.30;;
71715;SDS011;59568;52.128;5.434;2022-12-07T05:39:04;5.97;;;0.50;;
71715;SDS011;59568;52.128;5.434;2022-12-07T05:41:32;7.13;;;0.70;;
71715;SDS011;59568;52.128;5.434;2022-12-07T05:44:18;2.45;;;0.30;;
71715;SDS011;59568;52.128;5.434;2022-12-07T05:46:45;4.15;;;0.40;;
71715;SDS011;59568;52.128;5.434;2022-12-07T05:49:11;2.70;;;0.20;;
71715;SDS011;59568;52.128;5.434;2022-12-07T05:51:38;2.50;;;0.30;;
71715;SDS011;59568;52.128;5.434;2022-12-07T05:54:05;5.28;;;0.65;;
71715;SDS011;59568;52.128;5.434;2022-12-07T05:56:32;3.67;;;0.50;;
71715;SDS011;59568;52.128;5.434;2022-12-07T05:58:59;2.30;;;0.40;;
71715;SDS011;59568;52.128;5.434;2022-12-07T06:01:45;3.43;;;0.53;;
71715;SDS011;59568;52.128;5.434;2022-12-07T06:04:12;2.58;;;0.40;;
71715;SDS011;59568;52.128;5.434;2022-12-07T06:06:39;1.33;;;0.40;;
71715;SDS011;59568;52.128;5.434;2022-12-07T06:09:07;3.78;;;0.40;;
71715;SDS011;59568;52.128;5.434;2022-12-07T06:11:34;2.25;;;0.40;;
71715;SDS011;59568;52.128;5.434;2022-12-07T06:14:23;3.40;;;0.40;;
71715;SDS011;59568;52.128;5.434;2022-12-07T06:16:50;1.25;;;0.32;;
71715;SDS011;59568;52.128;5.434;2022-12-07T06:19:18;1.75;;;0.30;;
71715;SDS011;59568;52.128;5.434;2022-12-07T06:21:45;4.95;;;0.63;;
71715;SDS011;59568;52.128;5.434;2022-12-07T06:24:13;1.38;;;0.30;;
71715;SDS011;59568;52.128;5.434;2022-12-07T06:26:41;2.00;;;0.30;;
71715;SDS011;59568;52.128;5.434;2022-12-07T06:29:09;4.85;;;0.60;;
71715;SDS011;59568;52.128;5.434;2022-12-07T06:31:39;3.13;;;0.50;;
71715;SDS011;59568;52.128;5.434;2022-12-07T06:34:09;2.20;;;0.40;;
71715;SDS011;59568;52.128;5.434;2022-12-07T06:36:38;1.50;;;0.52;;
71715;SDS011;59568;52.128;5.434;2022-12-07T06:39:05;3.10;;;0.50;;
71715;SDS011;59568;52.128;5.434;2022-12-07T06:41:35;2.00;;;0.52;;
71715;SDS011;59568;52.128;5.434;2022-12-07T06:44:05;4.40;;;0.50;;
71715;SDS011;59568;52.128;5.434;2022-12-07T06:46:33;3.60;;;0.60;;
71715;SDS011;59568;52.128;5.434;2022-12-07T06:49:02;3.72;;;0.65;;
71715;SDS011;59568;52.128;5.434;2022-12-07T06:51:30;2.77;;;0.40;;
71715;SDS011;59568;52.128;5.434;2022-12-07T06:53:59;2.47;;;0.50;;
71715;SDS011;59568;52.128;5.434;2022-12-07T06:56:26;3.13;;;0.60;;
71715;SDS011;59568;52.128;5.434;2022-12-07T06:58:53;6.47;;;0.80;;
71715;SDS011;59568;52.128;5.434;2022-12-07T07:01:20;4.80;;;0.60;;
71715;SDS011;59568;52.128;5.434;2022-12-07T07:03:47;1.87;;;0.60;;
71715;SDS011;59568;52.128;5.434;2022-12-07T07:06:14;2.47;;;0.93;;
71715;SDS011;59568;52.128;5.434;2022-12-07T07:08:41;2.65;;;0.80;;
71715;SDS011;59568;52.128;5.434;2022-12-07T07:11:09;4.55;;;0.77;;
71715;SDS011;59568;52.128;5.434;2022-12-07T07:13:37;4.10;;;0.70;;
71715;SDS011;59568;52.128;5.434;2022-12-07T07:16:04;5.10;;;0.70;;
71715;SDS011;59568;52.128;5.434;2022-12-07T07:18:32;4.72;;;0.70;;
71715;SDS011;59568;52.128;5.434;2022-12-07T07:21:00;4.82;;;1.00;;
71715;SDS011;59568;52.128;5.434;2022-12-07T07:23:27;3.67;;;0.77;;
71715;SDS011;59568;52.128;5.434;2022-12-07T07:25:55;4.30;;;0.90;;
71715;SDS011;59568;52.128;5.434;2022-12-07T07:28:22;2.00;;;0.50;;
71715;SDS011;59568;52.128;5.434;2022-12-07T07:30:49;3.25;;;1.00;;
71715;SDS011;59568;52.128;5.434;2022-12-07T07:33:16;3.72;;;0.68;;
71715;SDS011;59568;52.128;5.434;2022-12-07T07:35:43;6.80;;;0.95;;
71715;SDS011;59568;52.128;5.434;2022-12-07T07:38:10;3.30;;;0.93;;
71715;SDS011;59568;52.128;5.434;2022-12-07T07:40:37;2.43;;;0.90;;
71715;SDS011;59568;52.128;5.434;2022-12-07T07:43:04;4.57;;;1.00;;
71715;SDS011;59568;52.128;5.434;2022-12-07T07:45:31;1.70;;;0.75;;
71715;SDS011;59568;52.128;5.434;2022-12-07T07:47:58;2.85;;;0.65;;
71715;SDS011;59568;52.128;5.434;2022-12-07T07:50:25;6.68;;;1.05;;
71715;SDS011;59568;52.128;5.434;2022-12-07T07:52:52;1.20;;;0.50;;
71715;SDS011;59568;52.128;5.434;2022-12-07T07:55:19;2.03;;;0.73;;
71715;SDS011;59568;52.128;5.434;2022-12-07T07:57:46;5.72;;;0.73;;
71715;SDS011;59568;52.128;5.434;2022-12-07T08:00:20;5.95;;;1.40;;
71715;SDS011;59568;52.128;5.434;2022-12-07T08:02:47;9.00;;;1.15;;
71715;SDS011;59568;52.128;5.434;2022-12-07T08:05:15;3.00;;;0.80;;
71715;SDS011;59568;52.128;5.434;2022-12-07T08:07:45;3.65;;;0.90;;
71715;SDS011;59568;52.128;5.434;2022-12-07T08:10:12;7.43;;;1.10;;
71715;SDS011;59568;52.128;5.434;2022-12-07T08:12:41;2.42;;;0.98;;
71715;SDS011;59568;52.128;5.434;2022-12-07T08:15:29;2.30;;;0.88;;
71715;SDS011;59568;52.128;5.434;2022-12-07T08:17:58;5.37;;;1.00;;
71715;SDS011;59568;52.128;5.434;2022-12-07T08:20:25;2.97;;;0.80;;
71715;SDS011;59568;52.128;5.434;2022-12-07T08:22:52;6.15;;;1.55;;
71715;SDS011;59568;52.128;5.434;2022-12-07T08:25:19;3.95;;;1.00;;
71715;SDS011;59568;52.128;5.434;2022-12-07T08:27:47;3.03;;;0.80;;
71715;SDS011;59568;52.128;5.434;2022-12-07T08:30:14;8.97;;;1.20;;
71715;SDS011;59568;52.128;5.434;2022-12-07T08:32:41;4.80;;;0.70;;
71715;SDS011;59568;52.128;5.434;2022-12-07T08:35:10;4.50;;;0.82;;
71715;SDS011;59568;52.128;5.434;2022-12-07T08:37:38;2.50;;;1.00;;
71715;SDS011;59568;52.128;5.434;2022-12-07T08:40:06;1.80;;;0.80;;
71715;SDS011;59568;52.128;5.434;2022-12-07T08:42:34;7.90;;;1.27;;
71715;SDS011;59568;52.128;5.434;2022-12-07T08:45:07;2.65;;;0.80;;
71715;SDS011;59568;52.128;5.434;2022-12-07T08:47:38;1.70;;;0.70;;
71715;SDS011;59568;52.128;5.434;2022-12-07T08:50:08;6.13;;;0.65;;
71715;SDS011;59568;52.128;5.434;2022-12-07T08:52:37;3.42;;;0.77;;
71715;SDS011;59568;52.128;5.434;2022-12-07T08:55:07;4.33;;;0.90;;
71715;SDS011;59568;52.128;5.434;2022-12-07T08:57:37;3.88;;;0.90;;
71715;SDS011;59568;52.128;5.434;2022-12-07T09:00:06;5.18;;;0.70;;
71715;SDS011;59568;52.128;5.434;2022-12-07T09:02:37;5.35;;;0.75;;
71715;SDS011;59568;52.128;5.434;2022-12-07T09:05:04;5.45;;;1.15;;
71715;SDS011;59568;52.128;5.434;2022-12-07T09:07:37;1.20;;;0.50;;
71715;SDS011;59568;52.128;5.434;2022-12-07T09:10:05;8.02;;;1.10;;
71715;SDS011;59568;52.128;5.434;2022-12-07T09:12:32;6.88;;;1.60;;
71715;SDS011;59568;52.128;5.434;2022-12-07T09:14:59;3.90;;;1.45;;
71715;SDS011;59568;52.128;5.434;2022-12-07T09:17:27;7.65;;;1.77;;
71715;SDS011;59568;52.128;5.434;2022-12-07T09:19:54;5.70;;;1.30;;
71715;SDS011;59568;52.128;5.434;2022-12-07T09:22:21;3.78;;;1.13;;
71715;SDS011;59568;52.128;5.434;2022-12-07T09:24:49;7.63;;;0.98;;
71715;SDS011;59568;52.128;5.434;2022-12-07T09:27:16;1.75;;;0.70;;
71715;SDS011;59568;52.128;5.434;2022-12-07T09:29:44;5.68;;;1.52;;
71715;SDS011;59568;52.128;5.434;2022-12-07T09:32:11;5.40;;;0.87;;
71715;SDS011;59568;52.128;5.434;2022-12-07T09:34:40;2.22;;;0.50;;
71715;SDS011;59568;52.128;5.434;2022-12-07T09:37:10;3.75;;;0.73;;
71715;SDS011;59568;52.128;5.434;2022-12-07T09:39:38;1.98;;;0.45;;
71715;SDS011;59568;52.128;5.434;2022-12-07T09:45:17;2.07;;;0.50;;
71715;SDS011;59568;52.128;5.434;2022-12-07T09:47:51;3.30;;;0.40;;
71715;SDS011;59568;52.128;5.434;2022-12-07T09:50:23;4.40;;;0.70;;
71715;SDS011;59568;52.128;5.434;2022-12-07T09:53:08;2.47;;;0.38;;
71715;SDS011;59568;52.128;5.434;2022-12-07T09:55:41;9.68;;;0.73;;
71715;SDS011;59568;52.128;5.434;2022-12-07T09:58:17;3.60;;;0.80;;
71715;SDS011;59568;52.128;5.434;2022-12-07T10:00:50;3.63;;;0.50;;
71715;SDS011;59568;52.128;5.434;2022-12-07T10:03:20;6.45;;;0.75;;
71715;SDS011;59568;52.128;5.434;2022-12-07T10:05:48;4.75;;;0.60;;
71715;SDS011;59568;52.128;5.434;2022-12-07T10:08:17;3.85;;;0.50;;
71715;SDS011;59568;52.128;5.434;2022-12-07T10:10:45;4.03;;;0.70;;
71715;SDS011;59568;52.128;5.434;2022-12-07T10:13:16;1.80;;;0.47;;
71715;SDS011;59568;52.128;5.434;2022-12-07T10:15:53;4.40;;;0.40;;
71715;SDS011;59568;52.128;5.434;2022-12-07T10:18:37;1.55;;;0.50;;
71715;SDS011;59568;52.128;5.434;2022-12-07T10:23:58;2.37;;;0.30;;
71715;SDS011;59568;52.128;5.434;2022-12-07T10:26:34;1.90;;;0.60;;
71715;SDS011;59568;52.128;5.434;2022-12-07T10:31:45;6.53;;;0.50;;
71715;SDS011;59568;52.128;5.434;2022-12-07T10:34:25;2.25;;;0.50;;
71715;SDS011;59568;52.128;5.434;2022-12-07T10:39:44;3.70;;;0.68;;
71715;SDS011;59568;52.128;5.434;2022-12-07T10:44:50;8.35;;;0.80;;
71715;SDS011;59568;52.128;5.434;2022-12-07T10:47:36;2.47;;;0.55;;
71715;SDS011;59568;52.128;5.434;2022-12-07T10:50:14;2.47;;;0.40;;
71715;SDS011;59568;52.128;5.434;2022-12-07T11:12:47;3.53;;;0.95;;
71715;SDS011;59568;52.128;5.434;2022-12-07T11:18:27;1.27;;;0.70;;
71715;SDS011;59568;52.128;5.434;2022-12-07T11:21:09;4.40;;;0.68;;
71715;SDS011;59568;52.128;5.434;2022-12-07T11:29:44;3.95;;;0.50;;
71715;SDS011;59568;52.128;5.434;2022-12-07T11:35:05;4.10;;;0.55;;
71715;SDS011;59568;52.128;5.434;2022-12-07T11:37:40;5.47;;;0.50;;
71715;SDS011;59568;52.128;5.434;2022-12-07T11:40:20;5.40;;;0.63;;
71715;SDS011;59568;52.128;5.434;2022-12-07T11:43:04;4.00;;;0.57;;
71715;SDS011;59568;52.128;5.434;2022-12-07T11:45:33;3.87;;;0.47;;
71715;SDS011;59568;52.128;5.434;2022-12-07T11:48:06;2.35;;;0.35;;
71715;SDS011;59568;52.128;5.434;2022-12-07T11:50:38;1.88;;;0.30;;
71715;SDS011;59568;52.128;5.434;2022-12-07T11:55:40;3.95;;;0.32;;
71715;SDS011;59568;52.128;5.434;2022-12-07T12:06:36;2.28;;;0.50;;
71715;SDS011;59568;52.128;5.434;2022-12-07T12:15:18;4.38;;;0.52;;
71715;SDS011;59568;52.128;5.434;2022-12-07T12:26:30;1.27;;;0.30;;
71715;SDS011;59568;52.128;5.434;2022-12-07T12:29:03;4.38;;;0.47;;
71715;SDS011;59568;52.128;5.434;2022-12-07T12:34:40;3.28;;;0.40;;
71715;SDS011;59568;52.128;5.434;2022-12-07T12:43:01;1.48;;;0.40;;
71715;SDS011;59568;52.128;5.434;2022-12-07T12:45:31;4.25;;;0.30;;
71715;SDS011;59568;52.128;5.434;2022-12-07T12:48:00;8.45;;;0.68;;
71715;SDS011;59568;52.128;5.434;2022-12-07T12:51:35;6.70;;;0.50;;
71715;SDS011;59568;52.128;5.434;2022-12-07T12:54:55;3.50;;;0.30;;
71715;SDS011;59568;52.128;5.434;2022-12-07T12:57:12;3.30;;;0.30;;
71715;SDS011;59568;52.128;5.434;2022-12-07T13:02:24;3.45;;;0.60;;
71715;SDS011;59568;52.128;5.434;2022-12-07T13:13:01;3.67;;;0.30;;
71715;SDS011;59568;52.128;5.434;2022-12-07T13:15:42;3.05;;;0.30;;
71715;SDS011;59568;52.128;5.434;2022-12-07T13:21:01;1.30;;;0.20;;
71715;SDS011;59568;52.128;5.434;2022-12-07T13:26:14;1.63;;;0.20;;
71715;SDS011;59568;52.128;5.434;2022-12-07T13:29:35;1.38;;;0.20;;
71715;SDS011;59568;52.128;5.434;2022-12-07T13:31:52;1.33;;;0.38;;
71715;SDS011;59568;52.128;5.434;2022-12-07T13:39:53;2.05;;;0.40;;
71715;SDS011;59568;52.128;5.434;2022-12-07T13:42:28;3.22;;;0.60;;
71715;SDS011;59568;52.128;5.434;2022-12-07T13:44:56;1.90;;;0.60;;
71715;SDS011;59568;52.128;5.434;2022-12-07T13:53:07;2.55;;;0.80;;
71715;SDS011;59568;52.128;5.434;2022-12-07T13:55:44;2.78;;;0.70;;
71715;SDS011;59568;52.128;5.434;2022-12-07T13:58:19;2.10;;;0.50;;
71715;SDS011;59568;52.128;5.434;2022-12-07T14:00:51;4.03;;;0.77;;
71715;SDS011;59568;52.128;5.434;2022-12-07T14:03:28;5.05;;;0.85;;
71715;SDS011;59568;52.128;5.434;2022-12-07T14:08:49;5.22;;;0.50;;
71715;SDS011;59568;52.128;5.434;2022-12-07T14:11:27;3.65;;;0.77;;
71715;SDS011;59568;52.128;5.434;2022-12-07T14:13:58;3.80;;;0.60;;
71715;SDS011;59568;52.128;5.434;2022-12-07T14:16:30;6.97;;;0.57;;
71715;SDS011;59568;52.128;5.434;2022-12-07T14:18:59;3.53;;;0.85;;
71715;SDS011;59568;52.128;5.434;2022-12-07T14:21:28;5.68;;;1.33;;
71715;SDS011;59568;52.128;5.434;2022-12-07T14:24:15;3.92;;;0.70;;
71715;SDS011;59568;52.128;5.434;2022-12-07T14:26:47;4.90;;;1.00;;
71715;SDS011;59568;52.128;5.434;2022-12-07T14:29:27;3.20;;;0.75;;
71715;SDS011;59568;52.128;5.434;2022-12-07T14:31:58;3.85;;;0.70;;
71715;SDS011;59568;52.128;5.434;2022-12-07T14:34:41;4.70;;;0.70;;
71715;SDS011;59568;52.128;5.434;2022-12-07T14:37:09;1.63;;;0.50;;
71715;SDS011;59568;52.128;5.434;2022-12-07T14:39:37;6.23;;;0.93;;
71715;SDS011;59568;52.128;5.434;2022-12-07T14:42:04;3.92;;;0.80;;
71715;SDS011;59568;52.128;5.434;2022-12-07T14:44:31;1.75;;;0.73;;
71715;SDS011;59568;52.128;5.434;2022-12-07T14:47:01;2.30;;;0.60;;
71715;SDS011;59568;52.128;5.434;2022-12-07T14:49:48;2.55;;;0.63;;
71715;SDS011;59568;52.128;5.434;2022-12-07T14:52:17;3.20;;;1.00;;
71715;SDS011;59568;52.128;5.434;2022-12-07T14:55:24;2.08;;;0.80;;
71715;SDS011;59568;52.128;5.434;2022-12-07T14:57:53;2.22;;;0.75;;
71715;SDS011;59568;52.128;5.434;2022-12-07T15:00:24;5.57;;;0.65;;
71715;SDS011;59568;52.128;5.434;2022-12-07T15:02:52;3.17;;;0.60;;
71715;SDS011;59568;52.128;5.434;2022-12-07T15:05:21;2.63;;;0.53;;
71715;SDS011;59568;52.128;5.434;2022-12-07T15:07:48;4.13;;;0.52;;
71715;SDS011;59568;52.128;5.434;2022-12-07T15:10:18;3.08;;;0.60;;
71715;SDS011;59568;52.128;5.434;2022-12-07T15:12:50;3.78;;;0.70;;
71715;SDS011;59568;52.128;5.434;2022-12-07T15:15:17;2.88;;;0.70;;
71715;SDS011;59568;52.128;5.434;2022-12-07T15:17:45;1.13;;;0.40;;
71715;SDS011;59568;52.128;5.434;2022-12-07T15:20:13;3.50;;;0.50;;
71715;SDS011;59568;52.128;5.434;2022-12-07T15:22:41;3.22;;;0.82;;
71715;SDS011;59568;52.128;5.434;2022-12-07T15:25:08;4.22;;;0.63;;
71715;SDS011;59568;52.128;5.434;2022-12-07T15:27:40;2.60;;;0.40;;
71715;SDS011;59568;52.128;5.434;2022-12-07T15:30:11;1.10;;;0.40;;
71715;SDS011;59568;52.128;5.434;2022-12-07T15:32:39;1.73;;;0.40;;
71715;SDS011;59568;52.128;5.434;2022-12-07T15:35:08;4.20;;;0.43;;
71715;SDS011;59568;52.128;5.434;2022-12-07T15:37:35;1.63;;;0.40;;
71715;SDS011;59568;52.128;5.434;2022-12-07T15:40:03;2.70;;;0.70;;
71715;SDS011;59568;52.128;5.434;2022-12-07T15:42:33;2.90;;;0.50;;
71715;SDS011;59568;52.128;5.434;2022-12-07T15:45:02;1.13;;;0.40;;
71715;SDS011;59568;52.128;5.434;2022-12-07T15:47:33;1.58;;;0.38;;
71715;SDS011;59568;52.128;5.434;2022-12-07T15:50:22;2.67;;;0.50;;
71715;SDS011;59568;52.128;5.434;2022-12-07T15:52:50;4.35;;;0.73;;
71715;SDS011;59568;52.128;5.434;2022-12-07T15:55:17;2.70;;;0.90;;
71715;SDS011;59568;52.128;5.434;2022-12-07T15:57:45;4.13;;;1.13;;
71715;SDS011;59568;52.128;5.434;2022-12-07T16:00:13;3.05;;;1.10;;
71715;SDS011;59568;52.128;5.434;2022-12-07T16:02:41;4.78;;;1.00;;
71715;SDS011;59568;52.128;5.434;2022-12-07T16:05:08;2.97;;;0.55;;
71715;SDS011;59568;52.128;5.434;2022-12-07T16:07:35;3.57;;;0.97;;
71715;SDS011;59568;52.128;5.434;2022-12-07T16:10:03;4.30;;;1.10;;
71715;SDS011;59568;52.128;5.434;2022-12-07T16:12:34;4.88;;;0.60;;
71715;SDS011;59568;52.128;5.434;2022-12-07T16:15:02;4.43;;;0.63;;
71715;SDS011;59568;52.128;5.434;2022-12-07T16:17:31;2.78;;;0.80;;
71715;SDS011;59568;52.128;5.434;2022-12-07T16:19:59;2.73;;;0.80;;
71715;SDS011;59568;52.128;5.434;2022-12-07T16:22:26;2.78;;;0.88;;
71715;SDS011;59568;52.128;5.434;2022-12-07T16:24:54;2.63;;;0.73;;
71715;SDS011;59568;52.128;5.434;2022-12-07T16:27:21;2.45;;;0.95;;
71715;SDS011;59568;52.128;5.434;2022-12-07T16:29:48;3.97;;;0.85;;
71715;SDS011;59568;52.128;5.434;2022-12-07T16:32:15;1.67;;;0.70;;
71715;SDS011;59568;52.128;5.434;2022-12-07T16:34:42;1.40;;;0.70;;
71715;SDS011;59568;52.128;5.434;2022-12-07T16:37:09;1.88;;;0.60;;
71715;SDS011;59568;52.128;5.434;2022-12-07T16:39:35;5.82;;;0.88;;
71715;SDS011;59568;52.128;5.434;2022-12-07T16:42:02;2.25;;;0.85;;
71715;SDS011;59568;52.128;5.434;2022-12-07T16:44:29;6.87;;;0.83;;
71715;SDS011;59568;52.128;5.434;2022-12-07T16:46:58;2.40;;;0.60;;
71715;SDS011;59568;52.128;5.434;2022-12-07T16:49:25;4.30;;;0.73;;
71715;SDS011;59568;52.128;5.434;2022-12-07T16:51:52;4.32;;;0.52;;
71715;SDS011;59568;52.128;5.434;2022-12-07T16:54:40;3.33;;;0.52;;
71715;SDS011;59568;52.128;5.434;2022-12-07T16:57:07;2.20;;;0.50;;
71715;SDS011;59568;52.128;5.434;2022-12-07T16:59:33;2.90;;;0.95;;
71715;SDS011;59568;52.128;5.434;2022-12-07T17:02:00;2.63;;;0.75;;
71715;SDS011;59568;52.128;5.434;2022-12-07T17:04:28;2.17;;;0.63;;
71715;SDS011;59568;52.128;5.434;2022-12-07T17:06:55;3.88;;;0.93;;
71715;SDS011;59568;52.128;5.434;2022-12-07T17:09:22;3.83;;;1.53;;
71715;SDS011;59568;52.128;5.434;2022-12-07T17:11:49;3.55;;;0.90;;
71715;SDS011;59568;52.128;5.434;2022-12-07T17:14:16;2.50;;;1.17;;
71715;SDS011;59568;52.128;5.434;2022-12-07T17:17:01;4.07;;;1.10;;
71715;SDS011;59568;52.128;5.434;2022-12-07T17:19:29;4.75;;;0.90;;
71715;SDS011;59568;52.128;5.434;2022-12-07T17:21:56;5.50;;;1.77;;
71715;SDS011;59568;52.128;5.434;2022-12-07T17:24:23;3.97;;;1.10;;
71715;SDS011;59568;52.128;5.434;2022-12-07T17:26:50;4.65;;;1.40;;
71715;SDS011;59568;52.128;5.434;2022-12-07T17:29:17;2.90;;;0.80;;
71715;SDS011;59568;52.128;5.434;2022-12-07T17:31:46;1.98;;;0.93;;
71715;SDS011;59568;52.128;5.434;2022-12-07T17:34:17;4.27;;;1.20;;